Current Weather Conditions: station 42390

sailwx.info

Wind from 160 at 7 knots

Air temperature 28.9° C
Dewpoint 23.9° C

Last reported at 2015-Aug-03 12:30 UTC.
Time now 2015-Aug-03 15:10 UTC

Location: N 26°06' W 094°54'.
View on Google Maps.

See reports from other nearby stations

  
Tides and Currents Weather Stations Pressure Air Temp Water Temp Dewpoint Dewpoint Depression Visibility Wind Speed Wind Dir Waves Ship Positions
date/time (UTC)wind fromknots sea level pressurealtimeterstation pressurevisibilityair tempwater tempwave heightnotes
2015-Aug-03 12:30 160 7 28.9
2015-Aug-03 10:30 180 7 30.0
2015-Aug-03 09:30 180 9 28.9
2015-Aug-03 08:30 180 11 30.0
2015-Aug-03 07:30 180 9 30.6
2015-Aug-03 06:30 170 11 29.4
2015-Aug-03 04:30 180 5 28.9
2015-Aug-03 03:30 190 5 31.7
2015-Aug-03 02:30 180 5 32.2
2015-Aug-03 00:30 190 5 31.1
2015-Aug-02 23:30 200 7 31.1
2015-Aug-02 22:30 210 5 33.3
2015-Aug-02 20:30 200 5 33.3
2015-Aug-02 19:30 200 5 32.2
2015-Aug-02 18:30 200 5 31.7
2015-Aug-02 17:30 200 5 32.8
2015-Aug-02 16:30 31.7
2015-Aug-02 15:30 180 31.7
2015-Aug-02 14:30 210 11 32.2
2015-Aug-02 13:30 220 9 31.1
2015-Aug-02 11:30 210 13 32.2
2015-Aug-02 10:30 200 13 32.2
2015-Aug-02 08:30 190 11 32.8
2015-Aug-02 07:30 190 9 31.7
2015-Aug-02 06:30 180 9 31.1
2015-Aug-02 05:30 170 7 29.4
2015-Aug-02 04:30 150 3 27.8
2015-Aug-02 01:30 30.6
2015-Aug-02 00:30 30.0
2015-Aug-01 23:30 260 3 33.9
2015-Aug-01 22:30 240 5 31.7
2015-Aug-01 21:30 220 7 29.4
2015-Aug-01 20:30 220 7 30.6
2015-Aug-01 17:30 050 3 27.2
2015-Aug-01 16:30 350 1 28.3